Time;durP1;ratioP1;P1;durP2;ratioP2;P2;SDS_P1;SDS_P2;PMS_P1;PMS_P2;Temp;Humidity;BMP_temperature;BMP_pressure;BME280_temperature;BME280_humidity;BME280_pressure;Samples;Min_cycle;Max_cycle;Signal;HPM_P1;HPM_P2
2021/01/31 00:00:00;;;;;;;26.60;13.17;;;0.10;90.00;;;;;;5005304;28;20022;-92
2021/01/31 00:02:25;;;;;;;26.00;11.97;;;0.00;90.10;;;;;;5004041;28;20030;-92
2021/01/31 00:04:52;;;;;;;26.13;12.80;;;0.10;90.00;;;;;;5003514;28;20026;-93
2021/01/31 00:07:19;;;;;;;26.23;12.23;;;0.10;89.90;;;;;;5004820;28;20121;-92
2021/01/31 00:09:47;;;;;;;26.33;12.67;;;0.10;89.90;;;;;;5004335;28;20084;-93
2021/01/31 00:12:13;;;;;;;24.58;13.10;;;0.00;90.00;;;;;;5004549;28;20101;-92
2021/01/31 00:14:38;;;;;;;24.40;12.30;;;0.00;90.00;;;;;;5004369;28;20057;-92
2021/01/31 00:17:05;;;;;;;27.03;12.90;;;0.00;90.10;;;;;;5004377;28;20054;-93
2021/01/31 00:19:31;;;;;;;27.33;13.07;;;-0.10;89.90;;;;;;5003153;28;20025;-93
2021/01/31 00:22:03;;;;;;;27.93;13.07;;;-0.10;90.20;;;;;;5003350;28;20022;-93
2021/01/31 00:24:29;;;;;;;28.60;13.97;;;-0.10;90.30;;;;;;5005256;28;20026;-92
2021/01/31 00:26:56;;;;;;;27.73;14.30;;;-0.10;90.20;;;;;;5006754;28;20030;-92
2021/01/31 00:29:21;;;;;;;27.10;13.13;;;-0.10;90.30;;;;;;5010049;28;20395;-92
2021/01/31 00:31:48;;;;;;;28.60;13.10;;;0.00;90.40;;;;;;5021801;28;20060;-92
2021/01/31 00:34:15;;;;;;;30.40;13.93;;;-0.10;90.10;;;;;;5030720;28;20478;-92
2021/01/31 00:36:42;;;;;;;29.13;13.83;;;-0.10;90.00;;;;;;5025743;28;20493;-93
2021/01/31 00:39:08;;;;;;;28.87;14.27;;;-0.10;90.10;;;;;;5030532;28;20120;-93
2021/01/31 00:41:35;;;;;;;28.90;14.20;;;-0.10;90.10;;;;;;5031372;28;20091;-92
2021/01/31 00:44:01;;;;;;;30.77;14.17;;;-0.20;90.20;;;;;;5032193;28;20033;-92
2021/01/31 00:46:26;;;;;;;24.93;12.73;;;-0.10;90.10;;;;;;5031353;28;20079;-93
2021/01/31 00:48:52;;;;;;;28.60;14.27;;;-0.20;90.10;;;;;;5032593;28;20036;-92
2021/01/31 00:51:17;;;;;;;30.30;14.07;;;-0.20;90.20;;;;;;5034386;28;20022;-92
2021/01/31 00:53:43;;;;;;;27.67;13.77;;;-0.20;90.20;;;;;;5042635;28;20030;-92
2021/01/31 00:56:08;;;;;;;28.43;14.27;;;-0.20;90.20;;;;;;5032245;28;20033;-92
2021/01/31 00:58:34;;;;;;;29.27;14.17;;;-0.20;90.20;;;;;;5033219;28;20026;-92
2021/01/31 01:00:59;;;;;;;27.47;13.53;;;-0.20;90.20;;;;;;5032659;28;20061;-93
2021/01/31 01:03:25;;;;;;;26.57;13.33;;;-0.20;90.20;;;;;;5031604;28;20021;-91
2021/01/31 01:05:50;;;;;;;28.00;15.20;;;-0.20;90.20;;;;;;5034819;28;20395;-91
2021/01/31 01:08:16;;;;;;;26.43;13.73;;;-0.30;90.20;;;;;;5034716;28;20060;-92
2021/01/31 01:10:41;;;;;;;29.33;13.83;;;-0.20;90.20;;;;;;5023886;28;20025;-92
2021/01/31 01:13:07;;;;;;;29.13;14.50;;;-0.30;90.20;;;;;;5023200;28;20040;-93
2021/01/31 01:15:33;;;;;;;29.30;14.40;;;-0.30;90.20;;;;;;5022841;28;20048;-92
2021/01/31 01:17:59;;;;;;;28.43;13.73;;;-0.30;90.20;;;;;;5023383;28;20036;-92
2021/01/31 01:20:26;;;;;;;29.67;14.30;;;-0.20;90.20;;;;;;5037520;28;20032;-92
2021/01/31 01:22:52;;;;;;;29.20;14.10;;;-0.20;90.20;;;;;;5030464;28;20116;-92
2021/01/31 01:25:19;;;;;;;27.60;13.30;;;-0.20;90.10;;;;;;5022259;28;20025;-92
2021/01/31 01:27:45;;;;;;;27.33;12.70;;;-0.20;90.10;;;;;;5021768;28;20057;-92
2021/01/31 01:30:14;;;;;;;27.07;13.50;;;-0.30;90.10;;;;;;5022833;28;20036;-92
2021/01/31 01:32:40;;;;;;;28.27;13.70;;;-0.30;90.10;;;;;;5022509;28;20076;-92
2021/01/31 01:35:08;;;;;;;28.83;14.10;;;-0.30;90.10;;;;;;5027529;28;20487;-92
2021/01/31 01:37:34;;;;;;;27.30;12.87;;;-0.30;90.10;;;;;;5034926;28;20049;-92
2021/01/31 01:40:00;;;;;;;30.97;14.27;;;-0.30;90.20;;;;;;5026175;28;20034;-92
2021/01/31 01:42:26;;;;;;;27.27;13.73;;;-0.30;90.20;;;;;;5022253;28;20061;-93
2021/01/31 01:44:52;;;;;;;30.80;13.10;;;-0.40;90.20;;;;;;5022587;28;20021;-93
2021/01/31 01:47:22;;;;;;;28.83;13.80;;;-0.40;90.20;;;;;;5023133;28;20025;-93
2021/01/31 01:49:50;;;;;;;28.20;14.27;;;-0.40;90.10;;;;;;5022388;28;20065;-92
2021/01/31 01:52:22;;;;;;;29.07;14.03;;;-0.30;90.20;;;;;;5022102;28;20032;-92
2021/01/31 01:54:53;;;;;;;27.93;13.57;;;-0.40;90.20;;;;;;5022087;28;20405;-92
2021/01/31 01:57:25;;;;;;;28.47;15.07;;;-0.40;90.20;;;;;;5021800;28;20029;-93
2021/01/31 01:59:53;;;;;;;29.20;14.20;;;-0.40;90.20;;;;;;5022263;28;20025;-92
2021/01/31 02:02:30;;;;;;;27.40;13.17;;;-0.40;90.30;;;;;;5022175;28;20029;-92
2021/01/31 02:04:59;;;;;;;29.47;13.90;;;-0.50;90.30;;;;;;5039103;28;20029;-93
2021/01/31 02:07:25;;;;;;;27.75;13.25;;;-0.40;90.30;;;;;;5026390;28;20056;-93
2021/01/31 02:09:51;;;;;;;28.03;13.63;;;-0.40;90.30;;;;;;5029124;28;20029;-93
2021/01/31 02:12:25;;;;;;;26.50;12.13;;;-0.40;90.30;;;;;;5033279;28;20021;-92
2021/01/31 02:14:52;;;;;;;27.50;13.60;;;-0.40;90.20;;;;;;5028847;28;20025;-93
2021/01/31 02:17:21;;;;;;;27.00;13.77;;;-0.40;90.20;;;;;;5020219;28;20052;-93
2021/01/31 02:20:30;;;;;;;26.60;13.32;;;-0.40;90.50;;;;;;5019730;28;20026;-93
2021/01/31 02:23:06;;;;;;;29.33;13.83;;;-0.40;90.30;;;;;;5020381;28;20033;-92
2021/01/31 02:25:50;;;;;;;28.27;14.17;;;-0.40;90.20;;;;;;5019741;28;20061;-93
2021/01/31 02:28:58;;;;;;;28.03;14.17;;;-0.40;90.10;;;;;;5020260;28;20062;-93
2021/01/31 02:32:07;;;;;;;29.30;13.23;;;-0.40;90.10;;;;;;5020523;28;20045;-92
2021/01/31 02:34:53;;;;;;;26.97;13.10;;;-0.50;90.10;;;;;;5021449;28;20037;-93
2021/01/31 02:37:28;;;;;;;28.90;14.03;;;-0.40;90.10;;;;;;5020792;28;20029;-92
2021/01/31 02:40:06;;;;;;;25.70;12.70;;;-0.50;90.10;;;;;;5021473;28;20026;-92
2021/01/31 02:42:50;;;;;;;28.43;13.10;;;-0.50;90.10;;;;;;5019651;28;20120;-93
2021/01/31 02:45:33;;;;;;;26.57;12.30;;;-0.50;90.10;;;;;;5020491;28;20029;-93
2021/01/31 02:48:06;;;;;;;26.40;12.73;;;-0.50;90.00;;;;;;5021343;28;20052;-92
2021/01/31 02:50:45;;;;;;;27.43;12.53;;;-0.50;90.00;;;;;;5021860;28;20052;-92
2021/01/31 02:53:22;;;;;;;26.70;12.73;;;-0.50;90.00;;;;;;5023084;28;20096;-92
2021/01/31 02:55:55;;;;;;;27.33;13.63;;;-0.50;89.90;;;;;;5022369;28;20104;-92
2021/01/31 02:58:24;;;;;;;29.50;13.23;;;-0.50;89.90;;;;;;5024801;28;20030;-92
2021/01/31 03:01:09;;;;;;;27.92;13.02;;;-0.50;89.80;;;;;;5024257;28;20025;-92
2021/01/31 03:03:49;;;;;;;26.30;12.93;;;-0.50;89.80;;;;;;5025067;28;20057;-92
2021/01/31 03:06:31;;;;;;;27.87;13.17;;;-0.50;89.90;;;;;;5025053;28;20021;-93
2021/01/31 03:09:14;;;;;;;27.10;13.07;;;-0.60;89.90;;;;;;5023287;28;20018;-92
2021/01/31 03:11:50;;;;;;;28.57;13.03;;;-0.60;90.00;;;;;;5024662;28;20053;-92
2021/01/31 03:14:24;;;;;;;28.00;12.53;;;-0.60;90.00;;;;;;5024288;28;20033;-93
2021/01/31 03:17:03;;;;;;;28.23;12.87;;;-0.60;90.40;;;;;;5020357;28;20073;-92
2021/01/31 03:19:37;;;;;;;28.10;12.57;;;-0.70;90.20;;;;;;5022239;28;20032;-91
2021/01/31 03:22:09;;;;;;;29.53;13.90;;;-0.70;90.20;;;;;;5022364;28;20033;-93
2021/01/31 03:24:41;;;;;;;25.47;12.47;;;-0.70;90.40;;;;;;5020252;28;20022;-93
2021/01/31 03:27:38;;;;;;;25.60;12.53;;;-0.80;90.40;;;;;;5021379;28;20029;-92
2021/01/31 03:30:06;;;;;;;28.67;13.50;;;-0.70;90.40;;;;;;5002666;28;20044;-93
2021/01/31 03:32:39;;;;;;;26.30;11.97;;;-0.70;90.30;;;;;;5021829;28;20534;-92
2021/01/31 03:35:13;;;;;;;26.50;12.93;;;-0.70;90.20;;;;;;5023088;28;20030;-92
2021/01/31 03:37:48;;;;;;;28.27;13.30;;;-0.70;90.10;;;;;;5021907;28;20509;-93
2021/01/31 03:40:15;;;;;;;28.00;12.87;;;-0.70;90.10;;;;;;5020823;28;20026;-93
2021/01/31 03:42:43;;;;;;;28.37;14.57;;;-0.70;90.20;;;;;;5019757;28;20022;-93
2021/01/31 03:45:12;;;;;;;28.73;13.63;;;-0.70;90.20;;;;;;5019450;28;20029;-94
2021/01/31 03:47:46;;;;;;;29.57;14.37;;;-0.80;90.60;;;;;;5019412;28;20088;-93
2021/01/31 03:50:12;;;;;;;28.90;14.13;;;-0.80;90.20;;;;;;5019296;28;20033;-93
2021/01/31 03:52:38;;;;;;;29.70;14.20;;;-0.80;90.40;;;;;;5020005;28;20029;-93
2021/01/31 03:55:05;;;;;;;28.43;12.97;;;-0.80;90.40;;;;;;5019637;28;20033;-92
2021/01/31 03:57:48;;;;;;;29.03;14.40;;;-0.80;90.30;;;;;;5023476;28;20029;-92
2021/01/31 04:00:27;;;;;;;28.40;13.57;;;-0.80;90.30;;;;;;5026700;28;20164;-92
2021/01/31 04:03:03;;;;;;;27.90;13.73;;;-0.80;90.30;;;;;;5026194;28;20053;-93
2021/01/31 04:05:32;;;;;;;28.07;13.67;;;-0.80;90.30;;;;;;5020499;28;20028;-93
2021/01/31 04:08:01;;;;;;;28.92;13.90;;;-0.80;90.30;;;;;;5019381;28;20390;-94
2021/01/31 04:10:27;;;;;;;28.07;13.30;;;-0.80;90.40;;;;;;5020045;28;20036;-94
2021/01/31 04:12:56;;;;;;;28.27;13.83;;;-0.80;90.40;;;;;;5019001;28;20037;-92
2021/01/31 04:15:36;;;;;;;29.67;14.32;;;-0.90;90.40;;;;;;5019060;28;20041;-94
2021/01/31 04:18:02;;;;;;;26.93;13.27;;;-0.90;90.30;;;;;;5017824;28;20029;-93
2021/01/31 04:20:27;;;;;;;27.63;13.20;;;-0.80;90.30;;;;;;5021676;28;20026;-94
2021/01/31 04:22:53;;;;;;;28.03;12.93;;;-0.80;90.40;;;;;;5022434;28;20021;-92
2021/01/31 04:25:19;;;;;;;29.03;13.93;;;-0.80;90.40;;;;;;5022179;28;20145;-93
2021/01/31 04:27:44;;;;;;;28.00;14.43;;;-0.90;90.40;;;;;;5022836;28;20032;-91
2021/01/31 04:30:10;;;;;;;26.93;13.33;;;-0.90;90.40;;;;;;5022436;28;20026;-90
2021/01/31 04:32:37;;;;;;;29.63;14.57;;;-0.90;90.40;;;;;;5022609;28;20521;-90
2021/01/31 04:35:06;;;;;;;28.73;14.20;;;-0.90;90.40;;;;;;5022390;28;20036;-90
2021/01/31 04:37:31;;;;;;;28.30;13.95;;;-0.90;90.40;;;;;;5022025;28;20025;-91
2021/01/31 04:39:57;;;;;;;28.13;13.30;;;-0.90;90.40;;;;;;5022949;28;20024;-92
2021/01/31 04:42:23;;;;;;;26.93;13.37;;;-0.90;90.50;;;;;;5022582;28;20097;-92
2021/01/31 04:44:50;;;;;;;26.53;12.70;;;-0.90;90.30;;;;;;5022315;28;20071;-91
2021/01/31 04:47:34;;;;;;;28.80;13.83;;;-0.80;90.30;;;;;;5020912;28;20114;-93
2021/01/31 04:50:02;;;;;;;27.70;13.67;;;-0.80;90.20;;;;;;5022702;28;20498;-93
2021/01/31 04:52:33;;;;;;;28.80;13.63;;;-0.80;90.10;;;;;;5021637;28;20048;-93
2021/01/31 04:55:22;;;;;;;28.50;14.07;;;-0.80;90.00;;;;;;5021428;28;20103;-92
2021/01/31 04:58:10;;;;;;;32.58;13.82;;;-0.80;89.90;;;;;;5022031;28;20476;-93
2021/01/31 05:00:41;;;;;;;27.97;13.30;;;-0.90;90.10;;;;;;5021086;28;20022;-93
2021/01/31 05:03:07;;;;;;;30.63;14.37;;;-0.90;90.10;;;;;;5021136;28;20148;-94
2021/01/31 05:06:02;;;;;;;29.70;14.50;;;-0.90;90.00;;;;;;5022004;28;20057;-92
2021/01/31 05:08:30;;;;;;;27.33;12.90;;;-0.90;90.30;;;;;;5010904;28;20037;-93
2021/01/31 05:11:00;;;;;;;29.40;13.83;;;-0.90;90.00;;;;;;5021717;28;20025;-93
2021/01/31 05:13:43;;;;;;;28.43;13.43;;;-0.90;90.00;;;;;;5021925;28;20035;-92
2021/01/31 05:16:13;;;;;;;29.00;13.60;;;-1.00;90.00;;;;;;5021399;28;20028;-92
2021/01/31 05:18:45;;;;;;;28.57;13.63;;;-0.90;90.00;;;;;;5020996;28;20022;-92
2021/01/31 05:21:14;;;;;;;29.17;13.43;;;-1.00;89.90;;;;;;5021333;28;20479;-93
2021/01/31 05:23:42;;;;;;;29.17;13.23;;;-1.00;90.00;;;;;;5021632;28;20558;-93
2021/01/31 05:26:10;;;;;;;28.45;13.20;;;-1.00;90.00;;;;;;5021496;28;20017;-92
2021/01/31 05:28:41;;;;;;;29.57;13.53;;;-1.00;90.00;;;;;;5021461;28;20066;-92
2021/01/31 05:31:12;;;;;;;27.97;14.03;;;-1.00;89.90;;;;;;5021102;28;20053;-93
2021/01/31 05:33:56;;;;;;;30.27;14.30;;;-1.00;89.90;;;;;;5021718;28;20033;-93
2021/01/31 05:36:24;;;;;;;28.57;14.57;;;-1.00;90.00;;;;;;5021095;28;20029;-93
2021/01/31 05:38:50;;;;;;;28.33;14.00;;;-1.00;90.00;;;;;;5022508;28;20022;-93
2021/01/31 05:41:34;;;;;;;30.07;13.27;;;-1.10;90.10;;;;;;5022067;28;20260;-92
2021/01/31 05:44:09;;;;;;;28.40;13.53;;;-1.10;90.20;;;;;;5022390;28;20474;-93
2021/01/31 05:46:54;;;;;;;27.30;13.23;;;-1.20;90.20;;;;;;5021148;28;20025;-93
2021/01/31 05:49:52;;;;;;;29.43;13.57;;;-1.20;90.40;;;;;;5022704;28;20040;-94
2021/01/31 05:52:21;;;;;;;29.45;14.13;;;-1.20;90.30;;;;;;5002994;28;20093;-93
2021/01/31 05:54:51;;;;;;;30.83;14.27;;;-1.20;90.20;;;;;;5022417;28;20025;-93
2021/01/31 05:57:30;;;;;;;32.63;14.43;;;-1.30;90.40;;;;;;5022069;28;20112;-94
2021/01/31 05:59:58;;;;;;;28.15;13.68;;;-1.30;90.80;;;;;;5021694;28;20025;-92
2021/01/31 06:02:29;;;;;;;28.17;12.90;;;-1.30;90.50;;;;;;5039227;28;20029;-94
2021/01/31 06:05:16;;;;;;;27.07;13.10;;;-1.30;90.60;;;;;;5022005;28;20018;-93
2021/01/31 06:07:44;;;;;;;30.23;13.47;;;-1.30;90.40;;;;;;5021351;28;20029;-92
2021/01/31 06:10:17;;;;;;;32.40;14.40;;;-1.30;90.30;;;;;;5022211;28;20032;-92
2021/01/31 06:12:48;;;;;;;27.13;12.73;;;-1.30;90.10;;;;;;5023508;28;20053;-91
2021/01/31 06:15:25;;;;;;;27.83;13.63;;;-1.30;90.10;;;;;;5022410;28;20057;-92
2021/01/31 06:18:03;;;;;;;28.97;13.90;;;-1.30;90.10;;;;;;5021779;28;20029;-91
2021/01/31 06:20:38;;;;;;;28.40;12.83;;;-1.40;89.80;;;;;;5022274;28;20108;-91
2021/01/31 06:23:05;;;;;;;27.93;13.20;;;-1.40;90.20;;;;;;5027936;28;20068;-92
2021/01/31 06:25:40;;;;;;;27.80;12.93;;;-1.40;90.20;;;;;;5030058;28;20024;-93
2021/01/31 06:28:08;;;;;;;27.90;13.43;;;-1.50;90.30;;;;;;5030556;28;20470;-93
2021/01/31 06:30:36;;;;;;;25.52;11.52;;;-1.50;90.30;;;;;;5022049;28;20483;-93
2021/01/31 06:33:02;;;;;;;27.17;12.50;;;-1.40;90.20;;;;;;5001811;28;20502;-91
2021/01/31 06:35:28;;;;;;;28.43;12.73;;;-1.40;90.10;;;;;;5002560;28;20026;-93
2021/01/31 06:38:00;;;;;;;27.67;12.73;;;-1.50;90.00;;;;;;5002526;28;20030;-94
2021/01/31 06:40:32;;;;;;;27.00;11.97;;;-1.40;90.00;;;;;;5002065;28;20022;-93
2021/01/31 06:43:10;;;;;;;28.93;12.70;;;-1.40;90.00;;;;;;5001447;28;20025;-94
2021/01/31 06:46:20;;;;;;;26.07;11.77;;;-1.40;89.70;;;;;;5002507;28;20030;-93
2021/01/31 06:49:12;;;;;;;26.87;11.57;;;-1.40;89.50;;;;;;4941906;29;20517;-93
2021/01/31 06:51:47;;;;;;;25.77;12.23;;;-1.40;89.50;;;;;;4997851;28;20412;-92
2021/01/31 06:54:21;;;;;;;27.47;12.47;;;-1.50;89.50;;;;;;5001827;28;20066;-93
2021/01/31 06:56:59;;;;;;;25.63;12.33;;;-1.50;89.80;;;;;;5000318;28;20026;-91
2021/01/31 06:59:54;;;;;;;29.43;12.93;;;-1.50;89.70;;;;;;5000485;28;20032;-93
2021/01/31 07:02:51;;;;;;;27.17;11.93;;;-1.50;89.70;;;;;;5001175;28;20026;-93
2021/01/31 07:05:43;;;;;;;25.23;11.80;;;-1.50;90.00;;;;;;5000715;28;20053;-93
2021/01/31 07:08:36;;;;;;;26.60;12.17;;;-1.50;89.60;;;;;;5000781;28;20124;-93
2021/01/31 07:11:21;;;;;;;26.53;12.70;;;-1.40;89.40;;;;;;5000921;28;20026;-93
2021/01/31 07:14:05;;;;;;;27.93;12.57;;;-1.50;89.30;;;;;;5000230;28;20030;-93
2021/01/31 07:16:41;;;;;;;27.93;12.43;;;-1.50;89.60;;;;;;5000741;28;20369;-94
2021/01/31 07:19:32;;;;;;;24.37;11.43;;;-1.60;89.80;;;;;;5001366;28;20399;-93
2021/01/31 07:22:07;;;;;;;29.83;11.73;;;-1.60;90.00;;;;;;5000808;28;20093;-93
2021/01/31 07:24:41;;;;;;;25.73;12.07;;;-1.60;90.00;;;;;;4999774;28;20030;-92
2021/01/31 07:27:24;;;;;;;26.80;12.90;;;-1.70;90.20;;;;;;4999713;28;20125;-93
2021/01/31 07:29:53;;;;;;;27.23;12.40;;;-1.70;90.20;;;;;;4999405;28;20442;-92
2021/01/31 07:32:25;;;;;;;24.35;11.25;;;-1.70;90.30;;;;;;5000048;28;20045;-93
2021/01/31 07:35:05;;;;;;;28.57;13.33;;;-1.60;90.10;;;;;;5000486;28;20076;-90
2021/01/31 07:37:34;;;;;;;26.30;12.40;;;-1.60;89.90;;;;;;4999774;28;20026;-93
2021/01/31 07:40:05;;;;;;;26.30;12.40;;;-1.60;89.60;;;;;;5000919;28;20033;-93
2021/01/31 07:42:33;;;;;;;29.57;13.40;;;-1.60;89.40;;;;;;5000877;28;20061;-93
2021/01/31 07:45:26;;;;;;;29.87;13.27;;;-1.60;89.20;;;;;;5014782;28;20022;-93
2021/01/31 07:48:27;;;;;;;26.33;12.67;;;-1.60;89.10;;;;;;5003106;28;20407;-93
2021/01/31 07:50:52;;;;;;;26.40;12.10;;;-1.60;88.90;;;;;;4999977;28;20030;-93
2021/01/31 07:53:32;;;;;;;26.73;12.50;;;-1.60;88.90;;;;;;5000172;28;20036;-93
2021/01/31 07:56:17;;;;;;;;;;;-1.60;88.80;;;;;;5005708;28;20048;-93
2021/01/31 07:58:44;;;;;;;27.13;11.97;;;-1.60;88.90;;;;;;5004459;28;20397;-92
2021/01/31 08:01:13;;;;;;;26.20;13.33;;;-1.60;88.80;;;;;;5002857;28;20029;-93
2021/01/31 08:03:40;;;;;;;25.60;11.93;;;-1.60;88.60;;;;;;5002622;28;20561;-92
2021/01/31 08:06:18;;;;;;;26.50;11.67;;;-1.60;88.90;;;;;;5003176;28;20395;-93
2021/01/31 08:08:50;;;;;;;26.23;12.67;;;-1.70;89.10;;;;;;5003836;28;20446;-93
2021/01/31 08:11:15;;;;;;;25.47;11.90;;;-1.70;89.10;;;;;;5009389;28;20026;-93
2021/01/31 08:13:45;;;;;;;26.00;12.20;;;-1.70;89.00;;;;;;5020481;28;20052;-92
2021/01/31 08:16:53;;;;;;;26.42;12.38;;;-1.70;88.80;;;;;;5002804;28;20026;-92
2021/01/31 08:19:19;;;;;;;25.00;11.55;;;-1.70;88.60;;;;;;5004204;28;20026;-92
2021/01/31 08:21:54;;;;;;;25.20;11.43;;;-1.70;88.60;;;;;;5003176;28;20041;-92
2021/01/31 08:24:57;;;;;;;23.90;11.13;;;-1.60;88.60;;;;;;5003558;28;20395;-92
2021/01/31 08:27:38;;;;;;;22.83;10.27;;;-1.60;88.30;;;;;;5002975;28;20372;-93
2021/01/31 08:30:28;;;;;;;23.13;10.83;;;-1.70;88.40;;;;;;5002901;28;20113;-93
2021/01/31 08:33:00;;;;;;;25.47;11.97;;;-1.70;88.50;;;;;;5002129;28;20535;-93
2021/01/31 08:35:28;;;;;;;24.63;11.37;;;-1.60;88.50;;;;;;5001951;28;20033;-94
2021/01/31 08:38:14;;;;;;;24.20;10.67;;;-1.60;88.30;;;;;;5002706;28;20546;-93
2021/01/31 08:40:40;;;;;;;23.43;11.17;;;-1.60;88.00;;;;;;5003194;28;20033;-93
2021/01/31 08:43:10;;;;;;;25.30;11.43;;;-1.60;87.90;;;;;;5003086;28;20030;-93
2021/01/31 08:45:45;;;;;;;25.53;11.40;;;-1.50;87.70;;;;;;5003312;28;20033;-93
2021/01/31 08:48:23;;;;;;;24.27;10.83;;;-1.60;87.90;;;;;;5003284;28;20025;-91
2021/01/31 08:51:05;;;;;;;23.40;10.83;;;-1.60;87.90;;;;;;5019354;28;20550;-91
2021/01/31 08:53:33;;;;;;;24.53;11.23;;;-1.60;88.00;;;;;;5011374;28;20030;-92
2021/01/31 08:56:12;;;;;;;24.33;11.23;;;-1.60;88.20;;;;;;5005901;28;20077;-93
2021/01/31 08:58:39;;;;;;;24.75;10.57;;;-1.60;88.30;;;;;;5003523;28;20076;-93
2021/01/31 09:01:04;;;;;;;22.17;10.20;;;-1.60;88.30;;;;;;5002073;28;20061;-93
2021/01/31 09:03:30;;;;;;;22.03;10.33;;;-1.60;88.50;;;;;;5002608;28;20034;-92
2021/01/31 09:05:58;;;;;;;22.80;10.30;;;-1.50;88.50;;;;;;5002022;28;20116;-92
2021/01/31 09:08:25;;;;;;;23.97;10.10;;;-1.40;88.40;;;;;;5002158;28;20026;-92
2021/01/31 09:10:51;;;;;;;23.97;10.93;;;-1.40;88.20;;;;;;5002945;28;20060;-92
2021/01/31 09:13:28;;;;;;;22.57;11.20;;;-1.40;88.20;;;;;;5002790;28;20033;-92
2021/01/31 09:16:16;;;;;;;23.80;11.03;;;-1.40;88.20;;;;;;5004275;28;20037;-93
2021/01/31 09:18:42;;;;;;;23.77;11.13;;;-1.30;88.20;;;;;;5003063;28;20034;-93
2021/01/31 09:21:30;;;;;;;25.60;11.27;;;-1.20;88.10;;;;;;5002931;28;20073;-93
2021/01/31 09:24:00;;;;;;;25.47;11.20;;;-1.20;88.00;;;;;;5002953;28;20029;-93
2021/01/31 09:26:26;;;;;;;;;;;-1.10;88.20;;;;;;5002993;28;20116;-93
2021/01/31 09:28:53;;;;;;;22.63;10.73;;;-1.00;88.10;;;;;;5001668;28;19905;-93
2021/01/31 09:31:19;;;;;;;26.00;12.10;;;-0.90;87.90;;;;;;5010218;28;20099;-92
2021/01/31 09:33:45;;;;;;;24.43;10.97;;;-0.90;87.80;;;;;;5023056;28;20025;-93
2021/01/31 09:36:21;;;;;;;24.53;11.03;;;-0.80;87.70;;;;;;5022438;28;20608;-91
2021/01/31 09:38:48;;;;;;;23.67;10.93;;;-0.70;87.70;;;;;;5021978;28;20075;-91
2021/01/31 09:41:16;;;;;;;23.50;11.33;;;-0.70;87.50;;;;;;5021648;28;20029;-93
2021/01/31 09:43:44;;;;;;;24.07;11.37;;;-0.60;87.30;;;;;;5021649;28;20067;-91
2021/01/31 09:46:14;;;;;;;24.30;11.17;;;-0.50;87.10;;;;;;5022276;28;20025;-92
2021/01/31 09:48:40;;;;;;;;;;;-0.40;86.80;;;;;;5022956;28;20021;-93
2021/01/31 09:51:08;;;;;;;23.50;11.33;;;-0.40;86.60;;;;;;5022252;28;20004;-92
2021/01/31 09:53:39;;;;;;;24.40;11.67;;;-0.30;86.80;;;;;;5022400;28;20486;-93
2021/01/31 09:56:11;;;;;;;23.03;10.87;;;-0.30;87.00;;;;;;5023483;28;20022;-91
2021/01/31 09:58:44;;;;;;;24.47;10.87;;;-0.30;87.00;;;;;;5024217;28;20494;-93
2021/01/31 10:01:31;;;;;;;23.30;11.47;;;-0.20;86.60;;;;;;5025399;28;20089;-93
2021/01/31 10:04:01;;;;;;;20.63;9.80;;;-0.20;86.50;;;;;;5034938;28;20068;-93
2021/01/31 10:06:43;;;;;;;23.13;11.93;;;-0.20;86.40;;;;;;5035347;28;20021;-92
2021/01/31 10:09:08;;;;;;;23.20;11.13;;;-0.10;86.30;;;;;;5035557;28;20029;-93
2021/01/31 10:11:47;;;;;;;21.60;10.37;;;0.00;85.90;;;;;;5034883;28;20097;-92
2021/01/31 10:14:37;;;;;;;22.50;11.47;;;0.00;85.70;;;;;;5035459;28;20029;-92
2021/01/31 10:17:15;;;;;;;21.80;10.00;;;0.00;85.40;;;;;;5021503;28;20085;-93
2021/01/31 10:19:41;;;;;;;24.63;11.10;;;0.10;85.60;;;;;;5035019;28;20076;-92
2021/01/31 10:22:24;;;;;;;22.43;11.63;;;0.10;85.40;;;;;;5035845;28;20021;-93
2021/01/31 10:24:50;;;;;;;21.23;11.27;;;0.00;85.40;;;;;;5036263;28;20021;-92
2021/01/31 10:27:33;;;;;;;22.17;11.57;;;0.00;85.50;;;;;;5033821;28;20120;-93
2021/01/31 10:30:23;;;;;;;22.83;11.27;;;0.00;85.80;;;;;;5027133;28;20107;-93
2021/01/31 10:32:49;;;;;;;22.23;11.30;;;0.10;86.10;;;;;;5025387;28;20053;-93
2021/01/31 10:35:32;;;;;;;21.97;11.27;;;0.10;85.80;;;;;;5023931;28;20485;-93
2021/01/31 10:37:59;;;;;;;24.23;11.83;;;0.10;86.60;;;;;;5022412;28;20025;-93
2021/01/31 10:40:26;;;;;;;23.87;11.63;;;0.10;86.20;;;;;;5022016;28;20029;-93
2021/01/31 10:42:52;;;;;;;23.63;12.37;;;0.10;86.90;;;;;;5021644;28;20036;-93
2021/01/31 10:45:23;;;;;;;25.20;11.53;;;0.10;86.20;;;;;;5022454;28;20021;-91
2021/01/31 10:47:49;;;;;;;24.13;11.40;;;0.20;86.10;;;;;;5023531;28;20033;-93
2021/01/31 10:50:18;;;;;;;24.30;11.20;;;0.20;86.10;;;;;;5022533;28;20037;-93
2021/01/31 10:52:44;;;;;;;23.63;11.57;;;0.20;86.10;;;;;;5022885;28;20033;-93
2021/01/31 10:55:11;;;;;;;21.90;11.47;;;0.20;86.10;;;;;;5023457;28;20025;-93
2021/01/31 10:57:37;;;;;;;21.97;11.50;;;0.20;86.20;;;;;;5022790;28;20033;-93
2021/01/31 11:00:08;;;;;;;21.67;10.77;;;0.30;86.10;;;;;;5022906;28;20021;-91
2021/01/31 11:02:35;;;;;;;21.50;10.43;;;0.20;86.10;;;;;;5022276;28;20028;-93
2021/01/31 11:05:00;;;;;;;23.60;11.00;;;0.20;86.00;;;;;;5023384;28;20017;-90
2021/01/31 11:07:26;;;;;;;24.93;11.57;;;0.30;86.10;;;;;;5022770;28;20048;-91
2021/01/31 11:09:52;;;;;;;22.20;10.67;;;0.20;86.30;;;;;;5022723;28;20028;-92
2021/01/31 11:12:18;;;;;;;24.77;11.17;;;0.30;86.40;;;;;;5022430;28;20095;-93
2021/01/31 11:14:43;;;;;;;21.90;10.97;;;0.30;86.40;;;;;;5022686;28;20057;-93
2021/01/31 11:17:09;;;;;;;23.80;12.37;;;0.30;86.40;;;;;;5022639;28;20030;-93
2021/01/31 11:19:35;;;;;;;22.30;10.90;;;0.30;86.40;;;;;;5022545;28;20033;-93
2021/01/31 11:22:00;;;;;;;21.83;11.60;;;0.30;86.30;;;;;;5027943;28;20052;-93
2021/01/31 11:24:26;;;;;;;22.57;11.10;;;0.30;86.40;;;;;;5027904;28;20026;-93
2021/01/31 11:26:51;;;;;;;21.90;11.10;;;0.40;86.60;;;;;;5026286;28;20033;-93
2021/01/31 11:29:17;;;;;;;20.30;10.13;;;0.40;86.60;;;;;;5025018;28;20037;-93
2021/01/31 11:31:42;;;;;;;20.20;10.13;;;0.40;86.40;;;;;;5026054;28;20053;-92
2021/01/31 11:34:08;;;;;;;19.97;10.17;;;0.50;86.20;;;;;;5026743;28;20098;-93
2021/01/31 11:36:33;;;;;;;21.20;10.17;;;0.50;86.00;;;;;;5026921;28;20037;-93
2021/01/31 11:39:07;;;;;;;22.57;10.50;;;0.50;86.00;;;;;;5026604;28;20062;-93
2021/01/31 11:41:33;;;;;;;21.47;10.50;;;0.60;86.10;;;;;;5026047;28;20052;-93
2021/01/31 11:43:58;;;;;;;21.27;10.00;;;0.60;85.90;;;;;;5025264;28;20025;-93
2021/01/31 11:46:24;;;;;;;20.40;10.80;;;0.60;85.80;;;;;;5025857;28;20022;-92
2021/01/31 11:48:49;;;;;;;21.40;10.63;;;0.70;85.80;;;;;;5025370;28;20029;-93
2021/01/31 11:51:15;;;;;;;22.77;10.70;;;0.70;85.90;;;;;;5025354;28;20030;-92
2021/01/31 11:53:41;;;;;;;20.70;9.77;;;0.70;85.50;;;;;;5026229;28;20041;-92
2021/01/31 11:56:07;;;;;;;22.03;10.57;;;0.80;85.40;;;;;;5025729;28;20091;-93
2021/01/31 11:58:33;;;;;;;20.57;10.33;;;0.80;85.30;;;;;;5024860;28;20033;-92
2021/01/31 12:00:58;;;;;;;22.10;10.30;;;0.80;85.10;;;;;;5025487;28;20038;-92
2021/01/31 12:03:24;;;;;;;19.43;10.07;;;0.90;84.90;;;;;;5025207;28;20026;-93
2021/01/31 12:05:49;;;;;;;20.70;10.73;;;0.90;84.70;;;;;;5024386;28;20025;-92
2021/01/31 12:08:15;;;;;;;20.87;10.13;;;0.90;84.50;;;;;;5025123;28;20040;-93
2021/01/31 12:10:40;;;;;;;20.07;9.23;;;0.90;84.40;;;;;;5024060;28;20068;-91
2021/01/31 12:13:06;;;;;;;18.50;9.47;;;1.00;84.30;;;;;;5024608;28;20032;-91
2021/01/31 12:15:31;;;;;;;20.80;10.37;;;1.00;84.30;;;;;;5024586;28;20040;-93
2021/01/31 12:17:57;;;;;;;21.00;10.90;;;1.10;84.20;;;;;;5023578;28;20039;-91
2021/01/31 12:20:23;;;;;;;20.37;10.23;;;1.10;84.20;;;;;;5024406;28;20021;-93
2021/01/31 12:22:48;;;;;;;20.20;10.33;;;1.10;84.10;;;;;;5024182;28;20048;-93
2021/01/31 12:25:16;;;;;;;19.63;10.40;;;1.20;84.30;;;;;;5024020;28;20025;-93
2021/01/31 12:27:48;;;;;;;18.90;9.17;;;1.30;84.10;;;;;;5025831;28;20383;-93
2021/01/31 12:30:15;;;;;;;20.00;10.13;;;1.40;83.60;;;;;;5025033;28;20036;-91
2021/01/31 12:32:43;;;;;;;19.83;9.77;;;1.50;83.50;;;;;;5024419;28;20050;-91
2021/01/31 12:35:09;;;;;;;20.30;9.93;;;1.50;83.50;;;;;;5026937;28;20025;-92
2021/01/31 12:37:35;;;;;;;20.07;9.40;;;1.60;83.20;;;;;;5027249;28;20040;-93
2021/01/31 12:40:01;;;;;;;18.43;8.70;;;1.70;83.00;;;;;;5025287;28;20017;-93
2021/01/31 12:42:26;;;;;;;18.20;8.87;;;1.80;83.00;;;;;;5027374;28;20033;-92
2021/01/31 12:44:52;;;;;;;19.50;9.93;;;1.80;82.60;;;;;;5037210;28;20021;-91
2021/01/31 12:47:18;;;;;;;22.77;9.37;;;1.90;82.40;;;;;;5037511;28;20033;-91
2021/01/31 12:49:46;;;;;;;19.73;9.63;;;1.90;82.20;;;;;;5029347;28;20029;-92
2021/01/31 12:52:11;;;;;;;19.73;9.33;;;1.90;82.10;;;;;;5028438;28;20034;-93
2021/01/31 12:54:37;;;;;;;18.13;9.17;;;1.90;82.50;;;;;;5028008;28;20040;-91